Time;durP1;ratioP1;P1;durP2;ratioP2;P2;SDS_P1;SDS_P2;PMS_P1;PMS_P2;Temp;Humidity;BMP_temperature;BMP_pressure;BME280_temperature;BME280_humidity;BME280_pressure;Samples;Min_cycle;Max_cycle;Signal;HPM_P1;HPM_P2
2023/10/12 00:00:25;;;;;;;15.30;4.07;;;;;;;;;;5062369;28;20127;-63
2023/10/12 00:02:52;;;;;;;12.70;3.27;;;;;;;;;;5064376;28;20106;-63
2023/10/12 00:05:18;;;;;;;12.23;3.00;;;;;;;;;;5048271;28;20063;-63
2023/10/12 00:07:46;;;;;;;11.97;3.73;;;;;;;;;;5048989;28;20048;-63
2023/10/12 00:12:44;;;;;;;19.27;5.23;;;;;;;;;;5049495;28;20522;-63
2023/10/12 00:17:51;;;;;;;6.83;2.60;;;;;;;;;;5048914;28;20419;-63
2023/10/12 00:20:35;;;;;;;19.00;4.13;;;;;;;;;;5056933;28;20078;-63
2023/10/12 00:23:12;;;;;;;14.43;3.90;;;;;;;;;;5059108;28;20053;-62
2023/10/12 00:25:46;;;;;;;13.30;4.63;;;;;;;;;;5069084;28;20052;-62
2023/10/12 00:28:17;;;;;;;16.63;4.50;;;;;;;;;;5068118;28;20102;-63
2023/10/12 00:30:43;;;;;;;23.60;5.07;;;;;;;;;;5066657;28;20418;-63
2023/10/12 00:33:09;;;;;;;24.77;5.03;;;;;;;;;;5059938;28;20045;-62
2023/10/12 00:35:39;;;;;;;21.43;4.97;;;;;;;;;;5049188;28;20056;-63
2023/10/12 00:38:18;;;;;;;21.43;5.10;;;;;;;;;;5051882;28;20061;-62
2023/10/12 00:40:51;;;;;;;13.63;4.23;;;;;;;;;;5048502;28;20415;-63
2023/10/12 00:43:17;;;;;;;15.00;3.78;;;;;;;;;;5049012;28;20106;-62
2023/10/12 00:45:43;;;;;;;16.70;4.40;;;;;;;;;;5048976;28;20045;-63
2023/10/12 00:48:15;;;;;;;25.40;4.77;;;;;;;;;;5048193;28;20049;-63
2023/10/12 00:50:44;;;;;;;19.80;3.97;;;;;;;;;;5064170;28;20055;-63
2023/10/12 00:53:30;;;;;;;28.93;5.83;;;;;;;;;;5068341;28;20565;-63
2023/10/12 00:55:56;;;;;;;21.00;5.37;;;;;;;;;;5048504;28;20056;-63
2023/10/12 00:58:23;;;;;;;25.03;5.20;;;;;;;;;;5048585;28;20095;-63
2023/10/12 01:00:52;;;;;;;12.70;5.80;;;;;;;;;;5048576;28;20068;-63
2023/10/12 01:03:30;;;;;;;24.97;5.17;;;;;;;;;;5048029;28;20513;-63
2023/10/12 01:08:36;;;;;;;23.50;5.40;;;;;;;;;;5048745;28;20091;-63
2023/10/12 01:11:07;;;;;;;20.80;5.50;;;;;;;;;;5048983;28;20040;-62
2023/10/12 01:13:34;;;;;;;19.60;4.50;;;;;;;;;;5047990;28;20060;-62
2023/10/12 01:16:20;;;;;;;21.23;5.90;;;;;;;;;;5048287;28;20445;-62
2023/10/12 01:18:47;;;;;;;22.50;5.47;;;;;;;;;;5048387;28;20053;-63
2023/10/12 01:21:13;;;;;;;29.40;5.53;;;;;;;;;;5048367;28;20052;-63
2023/10/12 01:23:50;;;;;;;15.53;4.20;;;;;;;;;;5047654;28;20402;-63
2023/10/12 01:26:17;;;;;;;33.60;6.43;;;;;;;;;;5055318;28;20506;-63
2023/10/12 01:28:49;;;;;;;33.70;5.73;;;;;;;;;;5055972;28;20041;-63
2023/10/12 01:31:23;;;;;;;25.87;5.67;;;;;;;;;;5047923;28;20064;-64
2023/10/12 01:33:54;;;;;;;22.13;4.43;;;;;;;;;;5048175;28;20057;-63
2023/10/12 01:36:21;;;;;;;15.40;3.30;;;;;;;;;;5047761;28;20114;-63
2023/10/12 01:38:47;;;;;;;15.57;4.10;;;;;;;;;;5048190;28;20446;-63
2023/10/12 01:41:17;;;;;;;21.20;4.93;;;;;;;;;;5048155;28;20049;-63
2023/10/12 01:43:47;;;;;;;23.93;5.00;;;;;;;;;;5050541;28;20427;-63
2023/10/12 01:46:14;;;;;;;24.43;4.70;;;;;;;;;;5051676;28;20049;-63
2023/10/12 01:48:42;;;;;;;19.43;4.83;;;;;;;;;;5050799;28;20057;-63
2023/10/12 01:51:16;;;;;;;21.07;4.80;;;;;;;;;;5050109;28;20063;-63
2023/10/12 01:53:42;;;;;;;18.60;4.47;;;;;;;;;;5051983;28;20380;-63
2023/10/12 01:56:11;;;;;;;18.07;4.83;;;;;;;;;;5051539;28;20102;-63
2023/10/12 01:58:40;;;;;;;23.23;5.30;;;;;;;;;;5051015;28;20216;-63
2023/10/12 02:01:07;;;;;;;19.23;4.50;;;;;;;;;;5051538;28;20636;-63
2023/10/12 02:03:37;;;;;;;17.40;4.80;;;;;;;;;;5052335;28;20167;-63
2023/10/12 02:06:05;;;;;;;21.23;5.17;;;;;;;;;;5051953;28;20555;-63
2023/10/12 02:08:32;;;;;;;15.20;4.10;;;;;;;;;;5051556;28;20628;-63
2023/10/12 02:11:06;;;;;;;20.80;4.40;;;;;;;;;;5050914;28;20497;-63
2023/10/12 02:13:34;;;;;;;25.00;5.60;;;;;;;;;;5051403;28;20063;-63
2023/10/12 02:16:07;;;;;;;20.33;4.57;;;;;;;;;;5051085;28;20114;-63
2023/10/12 02:18:34;;;;;;;18.00;4.43;;;;;;;;;;5051946;28;20499;-63
2023/10/12 02:21:08;;;;;;;15.97;4.30;;;;;;;;;;5050996;28;20095;-63
2023/10/12 02:31:54;;;;;;;17.97;5.20;;;;;;;;;;5071171;28;20102;-63
2023/10/12 02:34:25;;;;;;;18.07;4.50;;;;;;;;;;5070931;28;20056;-63
2023/10/12 02:39:40;;;;;;;19.58;5.53;;;;;;;;;;5050922;28;20603;-63
2023/10/12 02:44:36;;;;;;;16.70;4.43;;;;;;;;;;5050813;28;20087;-62
2023/10/12 02:47:12;;;;;;;15.70;4.77;;;;;;;;;;5050168;28;20080;-62
2023/10/12 02:49:39;;;;;;;20.83;5.30;;;;;;;;;;5049747;28;20049;-63
2023/10/12 02:52:08;;;;;;;19.03;4.70;;;;;;;;;;5050971;28;20107;-63
2023/10/12 02:54:41;;;;;;;22.97;6.13;;;;;;;;;;5050219;28;20052;-63
2023/10/12 02:57:09;;;;;;;35.20;8.57;;;;;;;;;;5050552;28;20103;-63
2023/10/12 02:59:38;;;;;;;18.53;5.63;;;;;;;;;;5050367;28;20118;-63
2023/10/12 03:02:22;;;;;;;23.70;7.10;;;;;;;;;;5050061;28;20045;-63
2023/10/12 03:04:49;;;;;;;38.57;9.57;;;;;;;;;;5060977;28;20044;-63
2023/10/12 03:07:22;;;;;;;24.10;7.60;;;;;;;;;;5070550;28;20448;-63
2023/10/12 03:09:57;;;;;;;27.63;8.20;;;;;;;;;;5065739;28;20053;-63
2023/10/12 03:12:24;;;;;;;25.80;8.60;;;;;;;;;;5050420;28;20041;-63
2023/10/12 03:14:51;;;;;;;29.37;9.50;;;;;;;;;;5049764;28;20067;-63
2023/10/12 03:17:18;;;;;;;28.00;9.07;;;;;;;;;;5050271;28;20088;-63
2023/10/12 03:20:14;;;;;;;19.63;7.43;;;;;;;;;;5049986;28;20048;-63
2023/10/12 03:22:43;;;;;;;26.40;8.30;;;;;;;;;;5050501;28;20107;-62
2023/10/12 03:25:36;;;;;;;19.83;7.37;;;;;;;;;;5049367;28;20080;-63
2023/10/12 03:28:11;;;;;;;24.87;7.33;;;;;;;;;;5050586;28;20062;-63
2023/10/12 03:30:43;;;;;;;16.50;5.80;;;;;;;;;;5050047;28;20051;-63
2023/10/12 03:33:14;;;;;;;16.33;5.87;;;;;;;;;;5049734;28;20045;-62
2023/10/12 03:36:03;;;;;;;20.67;7.50;;;;;;;;;;5049508;28;20045;-63
2023/10/12 03:38:33;;;;;;;16.70;7.10;;;;;;;;;;5049454;28;20064;-63
2023/10/12 03:41:46;;;;;;;21.60;6.97;;;;;;;;;;5049745;28;20049;-62
2023/10/12 03:44:11;;;;;;;21.77;7.97;;;;;;;;;;5049776;28;20060;-62
2023/10/12 03:46:45;;;;;;;23.92;7.10;;;;;;;;;;5049789;28;20101;-62
2023/10/12 03:51:59;;;;;;;28.37;7.07;;;;;;;;;;5050908;28;20052;-62
2023/10/12 03:54:34;;;;;;;17.50;5.90;;;;;;;;;;5048721;28;20111;-62
2023/10/12 03:57:07;;;;;;;27.93;7.57;;;;;;;;;;5049256;28;20094;-62
2023/10/12 03:59:37;;;;;;;31.67;8.95;;;;;;;;;;5049493;28;20041;-62
2023/10/12 04:02:04;;;;;;;31.53;8.03;;;;;;;;;;5062476;28;20040;-63
2023/10/12 04:04:35;;;;;;;19.67;6.00;;;;;;;;;;5056077;28;20045;-62
2023/10/12 04:09:42;;;;;;;21.50;6.40;;;;;;;;;;5059701;28;20087;-63
2023/10/12 04:14:54;;;;;;;29.40;7.63;;;;;;;;;;5047036;28;20141;-62
2023/10/12 04:17:41;;;;;;;36.47;8.53;;;;;;;;;;5049328;28;20071;-62
2023/10/12 04:33:24;;;;;;;24.13;5.90;;;;;;;;;;5048416;28;20049;-62
2023/10/12 04:41:24;;;;;;;34.33;6.97;;;;;;;;;;5048803;28;20318;-62
2023/10/12 04:43:34;;;;;;;31.27;6.90;;;;;;;;;;5048249;28;20147;-62
2023/10/12 04:46:39;;;;;;;21.00;5.30;;;;;;;;;;5048717;28;20128;-62
2023/10/12 04:51:40;;;;;;;23.67;6.00;;;;;;;;;;5049064;28;20068;-62
2023/10/12 04:54:17;;;;;;;34.70;8.00;;;;;;;;;;5048585;28;20053;-62
2023/10/12 04:56:56;;;;;;;28.93;6.00;;;;;;;;;;5047866;28;20128;-62
2023/10/12 04:59:29;;;;;;;27.23;6.20;;;;;;;;;;5068247;28;20040;-62
2023/10/12 05:09:49;;;;;;;32.47;8.00;;;;;;;;;;5058305;28;20129;-62
2023/10/12 05:12:20;;;;;;;25.73;6.47;;;;;;;;;;5068398;28;20049;-62
2023/10/12 05:14:46;;;;;;;22.53;7.43;;;;;;;;;;5054382;28;20134;-62
2023/10/12 05:17:12;;;;;;;17.20;5.97;;;;;;;;;;5054380;28;20401;-62
2023/10/12 05:19:41;;;;;;;33.13;7.87;;;;;;;;;;5054188;28;20045;-62
2023/10/12 05:22:07;;;;;;;19.73;5.87;;;;;;;;;;5069507;28;20120;-62
2023/10/12 05:24:33;;;;;;;29.67;7.40;;;;;;;;;;5059265;28;20037;-63
2023/10/12 05:27:23;;;;;;;40.90;8.80;;;;;;;;;;5057626;28;20057;-63
2023/10/12 05:29:52;;;;;;;24.73;6.70;;;;;;;;;;5055980;28;20503;-62
2023/10/12 05:39:50;;;;;;;24.37;8.07;;;;;;;;;;5071400;28;20080;-62
2023/10/12 05:42:20;;;;;;;43.73;9.90;;;;;;;;;;5052428;28;20057;-62
2023/10/12 05:45:17;;;;;;;23.23;7.60;;;;;;;;;;5052131;28;20059;-62
2023/10/12 05:47:43;;;;;;;29.33;7.63;;;;;;;;;;5051366;28;20053;-62
2023/10/12 05:50:15;;;;;;;33.47;9.03;;;;;;;;;;5069842;28;20119;-62
2023/10/12 05:52:41;;;;;;;24.43;7.63;;;;;;;;;;5068319;28;20080;-62
2023/10/12 05:55:20;;;;;;;22.43;7.37;;;;;;;;;;5069857;28;20490;-62
2023/10/12 05:57:48;;;;;;;24.97;6.97;;;;;;;;;;5059509;28;20495;-62
2023/10/12 06:00:18;;;;;;;20.47;7.57;;;;;;;;;;5064562;28;20052;-62
2023/10/12 06:02:45;;;;;;;37.77;8.57;;;;;;;;;;5062119;28;20549;-62
2023/10/12 06:05:12;;;;;;;45.33;10.57;;;;;;;;;;5050684;28;20131;-62
2023/10/12 06:07:38;;;;;;;38.30;10.50;;;;;;;;;;5050126;28;20057;-62
2023/10/12 06:10:09;;;;;;;28.97;8.20;;;;;;;;;;5050290;28;20114;-62
2023/10/12 06:12:35;;;;;;;31.00;8.93;;;;;;;;;;5050728;28;20070;-62
2023/10/12 06:15:01;;;;;;;37.93;10.10;;;;;;;;;;5049545;28;20049;-62
2023/10/12 06:17:30;;;;;;;44.87;10.63;;;;;;;;;;5050354;28;20061;-62
2023/10/12 06:19:58;;;;;;;40.37;9.23;;;;;;;;;;5049938;28;20560;-62
2023/10/12 06:22:32;;;;;;;27.07;9.00;;;;;;;;;;5053746;28;20102;-62
2023/10/12 06:24:59;;;;;;;29.30;9.73;;;;;;;;;;5059411;28;20502;-62
2023/10/12 06:27:25;;;;;;;31.77;9.63;;;;;;;;;;5070046;28;20075;-62
2023/10/12 06:29:53;;;;;;;36.30;10.47;;;;;;;;;;5065514;28;20498;-62
2023/10/12 06:32:19;;;;;;;30.97;9.57;;;;;;;;;;5069686;28;20048;-62
2023/10/12 06:35:02;;;;;;;30.63;10.00;;;;;;;;;;5069067;28;20048;-62
2023/10/12 06:45:46;;;;;;;34.47;9.10;;;;;;;;;;5069796;28;20098;-62
2023/10/12 06:51:02;;;;;;;42.77;10.27;;;;;;;;;;5069968;28;20048;-62
2023/10/12 06:53:34;;;;;;;34.40;9.20;;;;;;;;;;5069707;28;20051;-62
2023/10/12 06:56:15;;;;;;;32.23;8.50;;;;;;;;;;5069315;28;20048;-62
2023/10/12 06:58:43;;;;;;;50.00;11.67;;;;;;;;;;5069922;28;20557;-62
2023/10/12 07:01:27;;;;;;;37.70;9.33;;;;;;;;;;5070095;28;20730;-62
2023/10/12 07:03:54;;;;;;;26.70;8.60;;;;;;;;;;5069970;28;20137;-63
2023/10/12 07:06:20;;;;;;;31.47;8.67;;;;;;;;;;5070173;28;20041;-64
2023/10/12 07:08:46;;;;;;;26.90;7.53;;;;;;;;;;5068974;28;20430;-63
2023/10/12 07:11:13;;;;;;;31.27;9.53;;;;;;;;;;5069100;28;20110;-64
2023/10/12 07:13:41;;;;;;;26.30;9.03;;;;;;;;;;5069346;28;20063;-63
2023/10/12 07:16:08;;;;;;;22.13;8.13;;;;;;;;;;5069543;28;20083;-64
2023/10/12 07:18:34;;;;;;;37.70;9.07;;;;;;;;;;5069083;28;20101;-63
2023/10/12 07:21:00;;;;;;;26.33;9.57;;;;;;;;;;5068923;28;20051;-63
2023/10/12 07:23:35;;;;;;;40.87;9.77;;;;;;;;;;5069608;28;20406;-62
2023/10/12 07:26:07;;;;;;;45.30;10.80;;;;;;;;;;5069460;28;20048;-64
2023/10/12 07:28:34;;;;;;;33.37;10.33;;;;;;;;;;5069218;28;20511;-62
2023/10/12 07:33:59;;;;;;;26.20;9.00;;;;;;;;;;5068747;28;20521;-62
2023/10/12 07:39:19;;;;;;;23.27;8.43;;;;;;;;;;5069001;28;20059;-62
2023/10/12 07:41:54;;;;;;;32.67;9.40;;;;;;;;;;5068195;28;20041;-62
2023/10/12 07:44:39;;;;;;;20.80;7.70;;;;;;;;;;5068819;28;20044;-61
2023/10/12 07:47:14;;;;;;;17.23;7.70;;;;;;;;;;5068996;28;20059;-62
2023/10/12 07:49:57;;;;;;;22.73;7.37;;;;;;;;;;5068642;28;20056;-62
2023/10/12 07:52:31;;;;;;;18.73;5.18;;;;;;;;;;5068693;28;20153;-62
2023/10/12 07:54:58;;;;;;;21.27;5.97;;;;;;;;;;5068249;28;20135;-62
2023/10/12 07:57:30;;;;;;;22.63;7.43;;;;;;;;;;5068828;28;20053;-61
2023/10/12 08:10:48;;;;;;;15.23;4.27;;;;;;;;;;5068641;28;20052;-62
2023/10/12 08:15:56;;;;;;;17.67;3.77;;;;;;;;;;5068076;28;20075;-62
2023/10/12 08:21:31;;;;;;;15.67;3.73;;;;;;;;;;5067837;28;20406;-62
2023/10/12 08:26:35;;;;;;;14.27;3.17;;;;;;;;;;5068303;28;20053;-62
2023/10/12 08:29:08;;;;;;;21.93;3.80;;;;;;;;;;5068215;28;20067;-62
2023/10/12 08:31:35;;;;;;;19.53;3.23;;;;;;;;;;5068263;28;20115;-62
2023/10/12 08:34:13;;;;;;;23.17;3.30;;;;;;;;;;5067661;28;20094;-62
2023/10/12 08:39:37;;;;;;;18.97;3.37;;;;;;;;;;5067997;28;20585;-62
2023/10/12 08:42:30;;;;;;;22.73;3.17;;;;;;;;;;5068126;28;20056;-62
2023/10/12 08:44:58;;;;;;;26.70;4.87;;;;;;;;;;5067378;28;20053;-62
2023/10/12 08:47:40;;;;;;;22.77;3.67;;;;;;;;;;5067790;28;20166;-62
2023/10/12 08:52:50;;;;;;;16.00;2.63;;;;;;;;;;5066675;28;20083;-62
2023/10/12 08:55:19;;;;;;;17.60;3.57;;;;;;;;;;5067939;28;20044;-62
2023/10/12 08:57:52;;;;;;;17.47;3.23;;;;;;;;;;5067663;28;20129;-62
2023/10/12 09:00:38;;;;;;;;;;;;;;;;;;5068380;28;20063;-62
2023/10/12 09:03:14;;;;;;;16.50;2.87;;;;;;;;;;5067891;28;20027;-62
2023/10/12 09:05:41;;;;;;;20.20;3.57;;;;;;;;;;5045881;28;20049;-62
2023/10/12 09:13:24;;;;;;;13.87;2.80;;;;;;;;;;5047462;28;20290;-62
2023/10/12 09:15:54;;;;;;;21.40;3.27;;;;;;;;;;5047062;28;20511;-62
2023/10/12 09:18:24;;;;;;;11.73;2.43;;;;;;;;;;5047802;28;20475;-62
2023/10/12 09:31:13;;;;;;;17.20;2.10;;;;;;;;;;5047104;28;20060;-62
2023/10/12 09:36:53;;;;;;;15.07;2.40;;;;;;;;;;5024148;28;20428;-62
2023/10/12 09:39:25;;;;;;;11.40;2.27;;;;;;;;;;5044536;28;20062;-63
2023/10/12 09:41:55;;;;;;;10.60;2.33;;;;;;;;;;5047243;28;20049;-62
2023/10/12 09:44:28;;;;;;;18.47;3.30;;;;;;;;;;5047442;28;20415;-63
2023/10/12 09:47:00;;;;;;;12.18;2.30;;;;;;;;;;5046919;28;20503;-63
2023/10/12 09:49:29;;;;;;;15.52;2.33;;;;;;;;;;5046737;28;20045;-63
2023/10/12 09:52:00;;;;;;;16.90;2.97;;;;;;;;;;5045865;28;20099;-63
2023/10/12 09:54:32;;;;;;;15.63;2.40;;;;;;;;;;5047321;28;20056;-63
2023/10/12 09:57:16;;;;;;;21.20;4.22;;;;;;;;;;5046975;28;20080;-63
2023/10/12 09:59:51;;;;;;;14.00;2.47;;;;;;;;;;5047255;28;20053;-63
2023/10/12 10:02:34;;;;;;;14.23;2.57;;;;;;;;;;5046691;28;20051;-63
2023/10/12 10:05:20;;;;;;;18.42;3.25;;;;;;;;;;5049790;28;20045;-63
2023/10/12 10:07:55;;;;;;;9.93;2.63;;;;;;;;;;5050962;28;20159;-63
2023/10/12 10:10:32;;;;;;;20.67;2.60;;;;;;;;;;5050673;28;20084;-62
2023/10/12 10:13:08;;;;;;;12.10;3.07;;;;;;;;;;5049206;28;20171;-63
2023/10/12 10:15:55;;;;;;;13.50;3.10;;;;;;;;;;5050272;28;20055;-63
2023/10/12 10:18:25;;;;;;;12.33;2.43;;;;;;;;;;5050381;28;20049;-63
2023/10/12 10:20:58;;;;;;;10.43;2.60;;;;;;;;;;5050509;28;20498;-63
2023/10/12 10:23:24;;;;;;;;;;;;;;;;;;5051040;28;20049;-63
2023/10/12 10:25:56;;;;;;;9.97;2.50;;;;;;;;;;5050257;28;20420;-63
2023/10/12 10:28:28;;;;;;;14.07;2.50;;;;;;;;;;5050480;28;20642;-63
2023/10/12 10:30:56;;;;;;;9.93;2.35;;;;;;;;;;5050616;28;20059;-63
2023/10/12 10:33:23;;;;;;;13.43;2.70;;;;;;;;;;5049917;28;20127;-63
2023/10/12 10:36:10;;;;;;;13.20;2.37;;;;;;;;;;5050355;28;20073;-63
2023/10/12 10:38:39;;;;;;;14.23;3.60;;;;;;;;;;5050115;28;20087;-64
2023/10/12 10:41:07;;;;;;;9.27;2.00;;;;;;;;;;5051754;28;20120;-63
2023/10/12 10:43:37;;;;;;;12.67;2.50;;;;;;;;;;5052855;28;20436;-63
2023/10/12 10:46:05;;;;;;;12.33;2.23;;;;;;;;;;5061930;28;20057;-63
2023/10/12 10:48:33;;;;;;;9.07;2.30;;;;;;;;;;5061956;28;20056;-63
2023/10/12 10:51:02;;;;;;;12.23;2.83;;;;;;;;;;5063364;28;20048;-63
2023/10/12 10:53:31;;;;;;;9.83;2.63;;;;;;;;;;5069969;28;20044;-63
2023/10/12 10:56:00;;;;;;;13.97;3.00;;;;;;;;;;5049569;28;20055;-63
2023/10/12 10:58:26;;;;;;;13.80;2.80;;;;;;;;;;5050316;28;20059;-63
2023/10/12 11:00:59;;;;;;;16.77;3.07;;;;;;;;;;5052472;28;20434;-64
2023/10/12 11:03:32;;;;;;;12.80;3.80;;;;;;;;;;5070377;28;20059;-62
2023/10/12 11:05:58;;;;;;;21.10;3.60;;;;;;;;;;5055895;28;20128;-62
2023/10/12 11:08:27;;;;;;;14.13;2.97;;;;;;;;;;5070070;28;20053;-62
2023/10/12 11:13:39;;;;;;;12.30;3.60;;;;;;;;;;5066295;28;20095;-62
2023/10/12 11:16:28;;;;;;;9.67;2.40;;;;;;;;;;5063540;28;20479;-62
2023/10/12 11:18:55;;;;;;;11.43;2.37;;;;;;;;;;5049351;28;20045;-62
2023/10/12 11:21:21;;;;;;;17.40;2.70;;;;;;;;;;5062811;28;20101;-62
2023/10/12 11:23:50;;;;;;;11.83;2.77;;;;;;;;;;5065353;28;20407;-62
2023/10/12 11:26:20;;;;;;;11.03;2.40;;;;;;;;;;5067225;28;20128;-62
2023/10/12 11:28:48;;;;;;;15.10;2.60;;;;;;;;;;5061267;28;20052;-62
2023/10/12 11:31:30;;;;;;;11.57;2.13;;;;;;;;;;5065767;28;20048;-62
2023/10/12 11:33:56;;;;;;;10.80;2.60;;;;;;;;;;5049747;28;20049;-62
2023/10/12 11:36:25;;;;;;;14.50;2.77;;;;;;;;;;5060753;28;20049;-62
2023/10/12 11:39:01;;;;;;;11.33;2.43;;;;;;;;;;5049737;28;20419;-62
2023/10/12 11:41:28;;;;;;;11.03;2.33;;;;;;;;;;5049689;28;20049;-62
2023/10/12 11:43:54;;;;;;;10.20;2.70;;;;;;;;;;5049422;28;20101;-62
2023/10/12 11:46:24;;;;;;;18.43;3.77;;;;;;;;;;5049597;28;20501;-62
2023/10/12 11:49:08;;;;;;;18.63;2.90;;;;;;;;;;5049082;28;20129;-62
2023/10/12 11:51:40;;;;;;;13.60;2.83;;;;;;;;;;5067791;28;20084;-62
2023/10/12 11:54:06;;;;;;;12.53;2.60;;;;;;;;;;5068880;28;20048;-62
2023/10/12 11:56:33;;;;;;;21.77;3.43;;;;;;;;;;5057823;28;20084;-62
2023/10/12 11:58:59;;;;;;;12.60;2.50;;;;;;;;;;5051537;28;20069;-62
2023/10/12 12:01:33;;;;;;;13.13;2.90;;;;;;;;;;5049206;28;20450;-62
2023/10/12 12:04:02;;;;;;;16.77;3.00;;;;;;;;;;5048797;28;20052;-62
2023/10/12 12:06:32;;;;;;;16.27;3.60;;;;;;;;;;5050662;28;20414;-62
2023/10/12 12:08:59;;;;;;;12.00;2.73;;;;;;;;;;5049182;28;20136;-62
2023/10/12 12:11:31;;;;;;;15.40;3.40;;;;;;;;;;5049239;28;20149;-62
2023/10/12 12:13:57;;;;;;;13.77;2.90;;;;;;;;;;5060623;28;20044;-62
2023/10/12 12:16:23;;;;;;;18.63;3.60;;;;;;;;;;5057770;28;20047;-62
2023/10/12 12:18:53;;;;;;;12.57;2.70;;;;;;;;;;5069218;28;20048;-63
2023/10/12 12:21:29;;;;;;;16.17;3.10;;;;;;;;;;5054191;28;20072;-62
2023/10/12 12:23:56;;;;;;;18.33;3.00;;;;;;;;;;5049222;28;20491;-62
2023/10/12 12:26:24;;;;;;;11.77;3.67;;;;;;;;;;5049333;28;20080;-62
2023/10/12 12:29:02;;;;;;;15.83;3.47;;;;;;;;;;5049124;28;20670;-61
2023/10/12 12:31:32;;;;;;;16.37;2.73;;;;;;;;;;5053026;28;20539;-62
2023/10/12 12:33:58;;;;;;;19.77;3.53;;;;;;;;;;5048467;28;20139;-61
2023/10/12 12:36:24;;;;;;;20.53;3.33;;;;;;;;;;5049141;28;20388;-62
2023/10/12 12:39:09;;;;;;;18.60;3.37;;;;;;;;;;5048627;28;20534;-62
2023/10/12 12:41:35;;;;;;;16.07;4.30;;;;;;;;;;5051870;28;20440;-62
2023/10/12 12:44:02;;;;;;;20.90;4.67;;;;;;;;;;5065836;28;20048;-62
2023/10/12 12:46:32;;;;;;;24.67;4.70;;;;;;;;;;5064911;28;20135;-62
2023/10/12 12:48:58;;;;;;;25.17;4.50;;;;;;;;;;5063504;28;20066;-62
2023/10/12 12:51:24;;;;;;;16.70;3.67;;;;;;;;;;5060073;28;20040;-62
2023/10/12 12:53:52;;;;;;;16.93;3.67;;;;;;;;;;5048448;28;20104;-62
2023/10/12 12:56:19;;;;;;;23.13;4.07;;;;;;;;;;5047991;28;20084;-61
2023/10/12 12:58:49;;;;;;;20.97;4.60;;;;;;;;;;5048440;28;20044;-61
2023/10/12 13:01:16;;;;;;;17.17;4.70;;;;;;;;;;5048225;28;20067;-61
2023/10/12 13:03:42;;;;;;;16.03;4.07;;;;;;;;;;5048408;28;20072;-61
2023/10/12 13:06:08;;;;;;;20.83;4.73;;;;;;;;;;5049215;28;20577;-61
2023/10/12 13:08:37;;;;;;;28.13;4.50;;;;;;;;;;5047891;28;20049;-61
2023/10/12 13:11:07;;;;;;;16.40;3.40;;;;;;;;;;5048216;28;20048;-61
2023/10/12 13:13:35;;;;;;;18.97;3.70;;;;;;;;;;5047871;28;20924;-62
2023/10/12 13:16:04;;;;;;;15.60;4.23;;;;;;;;;;5046357;28;20052;-62
2023/10/12 13:18:33;;;;;;;17.43;4.77;;;;;;;;;;5047184;28;20057;-62
2023/10/12 13:20:59;;;;;;;19.03;3.33;;;;;;;;;;5049095;28;20056;-61
2023/10/12 13:23:25;;;;;;;18.33;3.73;;;;;;;;;;5056605;28;20049;-61
2023/10/12 13:25:51;;;;;;;15.53;4.40;;;;;;;;;;5059812;28;20048;-62
2023/10/12 13:28:17;;;;;;;22.57;3.90;;;;;;;;;;5067076;28;20124;-61
2023/10/12 13:30:44;;;;;;;19.93;4.13;;;;;;;;;;5066380;28;20127;-62
2023/10/12 13:33:13;;;;;;;19.77;4.37;;;;;;;;;;5067799;28;20520;-63
2023/10/12 13:35:45;;;;;;;24.17;4.60;;;;;;;;;;5064920;28;20089;-63
2023/10/12 13:38:13;;;;;;;20.20;4.90;;;;;;;;;;5056083;28;20827;-63
2023/10/12 13:40:40;;;;;;;16.30;5.50;;;;;;;;;;5051525;28;20566;-63
2023/10/12 13:43:15;;;;;;;19.77;4.53;;;;;;;;;;5051895;28;20040;-63
2023/10/12 13:45:51;;;;;;;20.23;5.23;;;;;;;;;;5051969;28;20138;-64
2023/10/12 13:48:22;;;;;;;22.30;5.00;;;;;;;;;;5051723;28;20056;-64
2023/10/12 13:51:04;;;;;;;19.33;5.13;;;;;;;;;;5054107;28;20123;-63
2023/10/12 13:53:34;;;;;;;19.17;5.20;;;;;;;;;;5049824;28;20499;-64
2023/10/12 13:56:01;;;;;;;19.93;6.43;;;;;;;;;;5050360;28;20049;-63
2023/10/12 13:58:27;;;;;;;28.13;7.40;;;;;;;;;;5051730;28;20064;-63
2023/10/12 14:00:54;;;;;;;25.83;6.77;;;;;;;;;;5050262;28;20053;-64
2023/10/12 14:03:28;;;;;;;26.40;7.43;;;;;;;;;;5051609;28;20044;-63
2023/10/12 14:05:54;;;;;;;18.87;5.77;;;;;;;;;;5051436;28;20080;-63
2023/10/12 14:08:20;;;;;;;22.20;6.40;;;;;;;;;;5051472;28;20044;-63
2023/10/12 14:10:46;;;;;;;15.07;6.60;;;;;;;;;;5051389;28;20727;-63
2023/10/12 14:13:13;;;;;;;29.53;9.17;;;;;;;;;;5051889;28;20147;-63
2023/10/12 14:15:43;;;;;;;31.97;9.33;;;;;;;;;;5050776;28;20121;-63
2023/10/12 14:18:11;;;;;;;19.07;7.87;;;;;;;;;;5051226;28;20053;-63
2023/10/12 14:20:40;;;;;;;23.67;8.30;;;;;;;;;;5051229;28;20386;-63
2023/10/12 14:23:06;;;;;;;24.07;8.90;;;;;;;;;;5051464;28;20083;-63
2023/10/12 14:25:37;;;;;;;31.87;10.20;;;;;;;;;;5050055;28;20083;-63
2023/10/12 14:28:05;;;;;;;27.93;11.03;;;;;;;;;;5050848;28;20436;-63
2023/10/12 14:30:31;;;;;;;28.53;10.17;;;;;;;;;;5049918;28;20052;-64
2023/10/12 14:33:02;;;;;;;35.60;9.63;;;;;;;;;;5050856;28;20049;-63
2023/10/12 14:35:28;;;;;;;30.53;10.60;;;;;;;;;;5051282;28;20064;-64
2023/10/12 14:37:58;;;;;;;31.07;10.80;;;;;;;;;;5050400;28;20052;-63
2023/10/12 14:40:34;;;;;;;34.53;10.67;;;;;;;;;;5049015;28;20740;-63
2023/10/12 14:43:07;;;;;;;27.20;9.50;;;;;;;;;;5050163;28;20866;-63
2023/10/12 14:45:37;;;;;;;23.77;9.40;;;;;;;;;;5049117;28;20087;-64
2023/10/12 14:48:09;;;;;;;28.20;10.00;;;;;;;;;;5050149;28;20577;-63
2023/10/12 14:50:35;;;;;;;29.03;10.50;;;;;;;;;;5049286;28;20056;-63
2023/10/12 14:53:02;;;;;;;28.37;10.80;;;;;;;;;;5050180;28;20045;-63
2023/10/12 14:55:28;;;;;;;41.73;13.03;;;;;;;;;;5049938;28;20403;-63
2023/10/12 14:57:54;;;;;;;33.07;12.23;;;;;;;;;;5050224;28;20052;-63
2023/10/12 15:00:23;;;;;;;34.33;11.43;;;;;;;;;;5049947;28;20714;-63
2023/10/12 15:02:50;;;;;;;35.07;10.33;;;;;;;;;;5050209;28;20091;-63
2023/10/12 15:05:16;;;;;;;39.50;11.70;;;;;;;;;;5050017;28;20049;-64
2023/10/12 15:07:42;;;;;;;27.47;9.30;;;;;;;;;;5049947;28;20060;-63
2023/10/12 15:10:08;;;;;;;31.37;11.47;;;;;;;;;;5049623;28;20071;-63
2023/10/12 15:12:34;;;;;;;40.03;11.03;;;;;;;;;;5062707;28;20051;-63
2023/10/12 15:15:04;;;;;;;24.30;9.07;;;;;;;;;;5069662;28;20036;-63
2023/10/12 15:17:30;;;;;;;26.00;8.73;;;;;;;;;;5069483;28;20048;-63
2023/10/12 15:19:56;;;;;;;30.90;9.00;;;;;;;;;;5069486;28;20041;-63
2023/10/12 15:22:23;;;;;;;25.87;8.00;;;;;;;;;;5069420;28;20063;-63
2023/10/12 15:24:50;;;;;;;25.90;8.93;;;;;;;;;;5069481;28;20052;-63
2023/10/12 15:27:16;;;;;;;22.00;7.30;;;;;;;;;;5068515;28;20052;-63
2023/10/12 15:29:42;;;;;;;22.87;8.03;;;;;;;;;;5051573;28;20088;-63
2023/10/12 15:32:08;;;;;;;25.20;8.67;;;;;;;;;;5049062;28;20087;-63
2023/10/12 15:34:34;;;;;;;40.40;10.60;;;;;;;;;;5049700;28;20441;-64
2023/10/12 15:37:01;;;;;;;39.13;9.83;;;;;;;;;;5048106;28;20114;-63
2023/10/12 15:39:31;;;;;;;36.43;8.70;;;;;;;;;;5067024;28;20055;-64
2023/10/12 15:41:58;;;;;;;32.83;8.73;;;;;;;;;;5066713;28;20049;-64
2023/10/12 15:44:24;;;;;;;33.93;8.67;;;;;;;;;;5048815;28;20048;-64
2023/10/12 15:46:50;;;;;;;37.33;10.50;;;;;;;;;;5049116;28;20055;-64
2023/10/12 15:49:16;;;;;;;26.00;9.30;;;;;;;;;;5049264;28;20048;-64
2023/10/12 15:51:42;;;;;;;47.53;12.33;;;;;;;;;;5049281;28;20106;-64
2023/10/12 15:54:11;;;;;;;47.17;17.17;;;;;;;;;;5065440;28;20779;-64
2023/10/12 15:56:38;;;;;;;59.50;20.87;;;;;;;;;;5057384;28;20099;-63
2023/10/12 15:59:04;;;;;;;60.97;18.97;;;;;;;;;;5054391;28;20040;-64
2023/10/12 16:01:33;;;;;;;38.53;15.27;;;;;;;;;;5060213;28;20048;-64
2023/10/12 16:04:00;;;;;;;39.83;11.97;;;;;;;;;;5067130;28;20072;-64
2023/10/12 16:06:26;;;;;;;36.03;12.60;;;;;;;;;;5065643;28;20044;-63
2023/10/12 16:08:53;;;;;;;32.17;12.40;;;;;;;;;;5061784;28;20105;-63
2023/10/12 16:11:19;;;;;;;37.87;12.10;;;;;;;;;;5056299;28;20053;-64
2023/10/12 16:13:46;;;;;;;33.00;9.93;;;;;;;;;;5068748;28;20522;-63
2023/10/12 16:16:12;;;;;;;34.80;10.77;;;;;;;;;;5056273;28;20037;-63
2023/10/12 16:18:42;;;;;;;38.27;11.40;;;;;;;;;;5065291;28;20558;-63
2023/10/12 16:21:12;;;;;;;27.50;9.63;;;;;;;;;;5064920;28;21056;-63
2023/10/12 16:23:40;;;;;;;31.50;11.23;;;;;;;;;;5050070;28;20048;-63
2023/10/12 16:26:08;;;;;;;29.47;10.57;;;;;;;;;;5058891;28;20060;-63
2023/10/12 16:28:34;;;;;;;34.80;12.17;;;;;;;;;;5054590;28;20041;-63
2023/10/12 16:31:01;;;;;;;30.47;12.73;;;;;;;;;;5067867;28;20051;-63
2023/10/12 16:33:32;;;;;;;29.57;11.10;;;;;;;;;;5060849;28;20045;-63
2023/10/12 16:35:58;;;;;;;31.67;11.93;;;;;;;;;;5065763;28;20049;-63
2023/10/12 16:38:25;;;;;;;38.37;12.67;;;;;;;;;;5067908;28;20067;-64
2023/10/12 16:40:51;;;;;;;41.00;13.70;;;;;;;;;;5065867;28;20056;-65
2023/10/12 16:43:17;;;;;;;48.13;15.10;;;;;;;;;;5062878;28;20066;-63
2023/10/12 16:45:45;;;;;;;44.27;14.77;;;;;;;;;;5064178;28;20040;-63
2023/10/12 16:48:13;;;;;;;39.63;15.17;;;;;;;;;;5060599;28;20048;-63
2023/10/12 16:50:40;;;;;;;45.50;20.40;;;;;;;;;;5051329;28;20048;-62
2023/10/12 16:53:07;;;;;;;45.93;18.53;;;;;;;;;;5066097;28;20106;-62
2023/10/12 16:55:33;;;;;;;39.67;14.00;;;;;;;;;;5067654;28;20049;-63